sensor_id;sensor_type;location;lat;lon;timestamp;pressure;altitude;pressure_sealevel;temperature;humidity
77086;BME280;66014;53.134;18.006;2023-04-24T00:01:08;100043.41;;;15.25;68.39
77086;BME280;66014;53.134;18.006;2023-04-24T00:03:34;100041.96;;;15.25;68.37
77086;BME280;66014;53.134;18.006;2023-04-24T00:06:01;100043.79;;;15.25;68.38
77086;BME280;66014;53.134;18.006;2023-04-24T00:08:32;100044.86;;;15.25;68.43
77086;BME280;66014;53.134;18.006;2023-04-24T00:10:58;100044.41;;;15.24;68.48
77086;BME280;66014;53.134;18.006;2023-04-24T00:13:24;100044.92;;;15.23;68.54
77086;BME280;66014;53.134;18.006;2023-04-24T00:15:49;100040.23;;;15.21;68.60
77086;BME280;66014;53.134;18.006;2023-04-24T00:18:16;100036.50;;;15.18;68.66
77086;BME280;66014;53.134;18.006;2023-04-24T00:20:42;100027.05;;;15.16;68.70
77086;BME280;66014;53.134;18.006;2023-04-24T00:23:09;100026.27;;;15.15;68.79
77086;BME280;66014;53.134;18.006;2023-04-24T00:25:40;100022.04;;;15.14;68.77
77086;BME280;66014;53.134;18.006;2023-04-24T00:28:15;100022.92;;;15.13;68.86
77086;BME280;66014;53.134;18.006;2023-04-24T00:30:41;100021.70;;;15.11;68.88
77086;BME280;66014;53.134;18.006;2023-04-24T00:33:08;100021.18;;;15.10;69.00
77086;BME280;66014;53.134;18.006;2023-04-24T00:35:35;100018.62;;;15.09;69.10
77086;BME280;66014;53.134;18.006;2023-04-24T00:38:01;100014.30;;;15.07;69.22
77086;BME280;66014;53.134;18.006;2023-04-24T00:40:27;100012.94;;;15.04;69.27
77086;BME280;66014;53.134;18.006;2023-04-24T00:42:53;100006.71;;;15.02;69.32
77086;BME280;66014;53.134;18.006;2023-04-24T00:45:19;100000.92;;;15.02;69.37
77086;BME280;66014;53.134;18.006;2023-04-24T00:47:45;99997.51;;;15.01;69.37
77086;BME280;66014;53.134;18.006;2023-04-24T00:50:14;99996.66;;;14.99;69.49
77086;BME280;66014;53.134;18.006;2023-04-24T00:52:42;99996.67;;;14.98;69.57
77086;BME280;66014;53.134;18.006;2023-04-24T00:55:09;99999.28;;;14.96;69.60
77086;BME280;66014;53.134;18.006;2023-04-24T00:57:35;99998.56;;;14.95;69.66
77086;BME280;66014;53.134;18.006;2023-04-24T01:00:01;100005.01;;;14.92;69.78
77086;BME280;66014;53.134;18.006;2023-04-24T01:02:28;100006.14;;;14.90;69.82
77086;BME280;66014;53.134;18.006;2023-04-24T01:04:55;99997.11;;;14.90;69.91
77086;BME280;66014;53.134;18.006;2023-04-24T01:07:21;99998.67;;;14.90;69.96
77086;BME280;66014;53.134;18.006;2023-04-24T01:09:48;99998.44;;;14.89;69.91
77086;BME280;66014;53.134;18.006;2023-04-24T01:12:15;99996.56;;;14.88;69.96
77086;BME280;66014;53.134;18.006;2023-04-24T01:14:41;99991.16;;;14.83;70.05
77086;BME280;66014;53.134;18.006;2023-04-24T01:17:09;99991.52;;;14.81;70.15
77086;BME280;66014;53.134;18.006;2023-04-24T01:19:37;99993.87;;;14.80;70.24
77086;BME280;66014;53.134;18.006;2023-04-24T01:22:15;99989.80;;;14.80;70.23
77086;BME280;66014;53.134;18.006;2023-04-24T01:24:43;99982.98;;;14.80;70.16
77086;BME280;66014;53.134;18.006;2023-04-24T01:27:10;99980.64;;;14.79;70.22
77086;BME280;66014;53.134;18.006;2023-04-24T01:29:36;99976.48;;;14.78;70.20
77086;BME280;66014;53.134;18.006;2023-04-24T01:32:03;99981.02;;;14.78;70.27
77086;BME280;66014;53.134;18.006;2023-04-24T01:34:30;99979.96;;;14.76;70.36
77086;BME280;66014;53.134;18.006;2023-04-24T01:36:58;99980.02;;;14.75;70.31
77086;BME280;66014;53.134;18.006;2023-04-24T01:39:24;99979.92;;;14.73;70.45
77086;BME280;66014;53.134;18.006;2023-04-24T01:41:51;99979.37;;;14.71;70.50
77086;BME280;66014;53.134;18.006;2023-04-24T01:44:18;99977.70;;;14.69;70.61
77086;BME280;66014;53.134;18.006;2023-04-24T01:46:45;99975.39;;;14.69;70.58
77086;BME280;66014;53.134;18.006;2023-04-24T01:49:12;99976.38;;;14.69;70.57
77086;BME280;66014;53.134;18.006;2023-04-24T01:51:38;99974.89;;;14.70;70.69
77086;BME280;66014;53.134;18.006;2023-04-24T01:54:04;99974.58;;;14.71;70.73
77086;BME280;66014;53.134;18.006;2023-04-24T01:56:33;99972.63;;;14.69;70.67
77086;BME280;66014;53.134;18.006;2023-04-24T01:58:59;99975.44;;;14.67;70.79
77086;BME280;66014;53.134;18.006;2023-04-24T02:01:26;99970.05;;;14.65;70.94
77086;BME280;66014;53.134;18.006;2023-04-24T02:03:55;99973.05;;;14.61;71.05
77086;BME280;66014;53.134;18.006;2023-04-24T02:06:23;99976.95;;;14.54;71.33
77086;BME280;66014;53.134;18.006;2023-04-24T02:08:49;99973.03;;;14.46;71.56
77086;BME280;66014;53.134;18.006;2023-04-24T02:11:15;99970.39;;;14.39;71.60
77086;BME280;66014;53.134;18.006;2023-04-24T02:13:42;99969.66;;;14.38;71.66
77086;BME280;66014;53.134;18.006;2023-04-24T02:16:08;99968.45;;;14.37;71.78
77086;BME280;66014;53.134;18.006;2023-04-24T02:18:35;99964.73;;;14.33;72.09
77086;BME280;66014;53.134;18.006;2023-04-24T02:21:02;99964.84;;;14.28;71.99
77086;BME280;66014;53.134;18.006;2023-04-24T02:23:28;99956.19;;;14.29;72.01
77086;BME280;66014;53.134;18.006;2023-04-24T02:25:54;99946.71;;;14.29;72.08
77086;BME280;66014;53.134;18.006;2023-04-24T02:28:20;99951.05;;;14.29;72.09
77086;BME280;66014;53.134;18.006;2023-04-24T02:30:45;99952.89;;;14.31;72.01
77086;BME280;66014;53.134;18.006;2023-04-24T02:33:11;99949.65;;;14.34;72.03
77086;BME280;66014;53.134;18.006;2023-04-24T02:35:37;99951.21;;;14.34;72.07
77086;BME280;66014;53.134;18.006;2023-04-24T02:38:03;99950.23;;;14.33;71.95
77086;BME280;66014;53.134;18.006;2023-04-24T02:40:30;99948.62;;;14.33;72.08
77086;BME280;66014;53.134;18.006;2023-04-24T02:42:55;99949.64;;;14.30;72.24
77086;BME280;66014;53.134;18.006;2023-04-24T02:45:22;99945.23;;;14.26;72.28
77086;BME280;66014;53.134;18.006;2023-04-24T02:47:48;99936.98;;;14.25;72.17
77086;BME280;66014;53.134;18.006;2023-04-24T02:50:14;99933.61;;;14.26;72.08
77086;BME280;66014;53.134;18.006;2023-04-24T02:52:52;99931.14;;;14.29;72.07
77086;BME280;66014;53.134;18.006;2023-04-24T02:55:18;99932.27;;;14.31;72.08
77086;BME280;66014;53.134;18.006;2023-04-24T02:57:44;99931.08;;;14.32;72.10
77086;BME280;66014;53.134;18.006;2023-04-24T03:00:10;99930.66;;;14.31;72.12
77086;BME280;66014;53.134;18.006;2023-04-24T03:02:37;99932.30;;;14.29;72.06
77086;BME280;66014;53.134;18.006;2023-04-24T03:05:10;99936.11;;;14.27;72.20
77086;BME280;66014;53.134;18.006;2023-04-24T03:07:37;99937.24;;;14.24;72.07
77086;BME280;66014;53.134;18.006;2023-04-24T03:10:04;99940.42;;;14.23;72.18
77086;BME280;66014;53.134;18.006;2023-04-24T03:12:31;99941.91;;;14.23;72.24
77086;BME280;66014;53.134;18.006;2023-04-24T03:14:57;99937.23;;;14.22;72.40
77086;BME280;66014;53.134;18.006;2023-04-24T03:17:22;99937.29;;;14.19;72.34
77086;BME280;66014;53.134;18.006;2023-04-24T03:19:48;99938.98;;;14.18;72.37
77086;BME280;66014;53.134;18.006;2023-04-24T03:22:14;99940.30;;;14.19;72.22
77086;BME280;66014;53.134;18.006;2023-04-24T03:24:40;99942.56;;;14.17;72.08
77086;BME280;66014;53.134;18.006;2023-04-24T03:27:06;99952.66;;;14.16;72.21
77086;BME280;66014;53.134;18.006;2023-04-24T03:29:32;99951.98;;;14.13;72.14
77086;BME280;66014;53.134;18.006;2023-04-24T03:31:58;99952.45;;;14.13;72.15
77086;BME280;66014;53.134;18.006;2023-04-24T03:34:23;99955.75;;;14.17;72.11
77086;BME280;66014;53.134;18.006;2023-04-24T03:36:49;99961.34;;;14.19;71.77
77086;BME280;66014;53.134;18.006;2023-04-24T03:39:18;99960.69;;;14.17;71.57
77086;BME280;66014;53.134;18.006;2023-04-24T03:41:44;99963.83;;;14.15;71.57
77086;BME280;66014;53.134;18.006;2023-04-24T03:44:09;99960.64;;;14.13;71.57
77086;BME280;66014;53.134;18.006;2023-04-24T03:46:35;99956.20;;;14.10;71.55
77086;BME280;66014;53.134;18.006;2023-04-24T03:49:01;99950.59;;;14.08;71.59
77086;BME280;66014;53.134;18.006;2023-04-24T03:51:27;99952.54;;;14.05;72.32
77086;BME280;66014;53.134;18.006;2023-04-24T03:54:35;99949.81;;;13.95;72.49
77086;BME280;66014;53.134;18.006;2023-04-24T03:57:01;99941.17;;;13.86;72.94
77086;BME280;66014;53.134;18.006;2023-04-24T03:59:43;99939.39;;;13.74;73.13
77086;BME280;66014;53.134;18.006;2023-04-24T04:02:15;99933.42;;;13.68;73.27
77086;BME280;66014;53.134;18.006;2023-04-24T04:04:40;99936.54;;;13.62;73.21
77086;BME280;66014;53.134;18.006;2023-04-24T04:07:12;99933.16;;;13.57;73.53
77086;BME280;66014;53.134;18.006;2023-04-24T04:09:39;99927.66;;;13.54;73.71
77086;BME280;66014;53.134;18.006;2023-04-24T04:12:04;99922.15;;;13.51;73.87
77086;BME280;66014;53.134;18.006;2023-04-24T04:14:30;99921.05;;;13.53;74.21
77086;BME280;66014;53.134;18.006;2023-04-24T04:16:56;99918.85;;;13.55;74.08
77086;BME280;66014;53.134;18.006;2023-04-24T04:19:22;99920.75;;;13.54;73.95
77086;BME280;66014;53.134;18.006;2023-04-24T04:21:48;99923.96;;;13.54;74.38
77086;BME280;66014;53.134;18.006;2023-04-24T04:24:19;99922.87;;;13.58;74.49
77086;BME280;66014;53.134;18.006;2023-04-24T04:26:46;99920.09;;;13.60;74.16
77086;BME280;66014;53.134;18.006;2023-04-24T04:29:13;99922.52;;;13.62;74.48
77086;BME280;66014;53.134;18.006;2023-04-24T04:31:39;99919.70;;;13.65;74.87
77086;BME280;66014;53.134;18.006;2023-04-24T04:34:05;99914.77;;;13.69;75.19
77086;BME280;66014;53.134;18.006;2023-04-24T04:36:31;99913.30;;;13.75;75.21
77086;BME280;66014;53.134;18.006;2023-04-24T04:38:58;99908.42;;;13.79;75.12
77086;BME280;66014;53.134;18.006;2023-04-24T04:41:24;99915.38;;;13.84;75.10
77086;BME280;66014;53.134;18.006;2023-04-24T04:43:50;99918.37;;;13.88;74.55
77086;BME280;66014;53.134;18.006;2023-04-24T04:46:18;99919.60;;;13.88;74.34
77086;BME280;66014;53.134;18.006;2023-04-24T04:48:44;99915.55;;;13.90;74.12
77086;BME280;66014;53.134;18.006;2023-04-24T04:51:10;99917.99;;;13.96;74.43
77086;BME280;66014;53.134;18.006;2023-04-24T04:53:36;99914.24;;;14.00;74.30
77086;BME280;66014;53.134;18.006;2023-04-24T04:56:03;99904.67;;;14.04;74.34
77086;BME280;66014;53.134;18.006;2023-04-24T04:58:29;99901.45;;;14.10;74.31
77086;BME280;66014;53.134;18.006;2023-04-24T05:00:55;99900.30;;;14.17;74.49
77086;BME280;66014;53.134;18.006;2023-04-24T05:03:22;99898.77;;;14.25;74.41
77086;BME280;66014;53.134;18.006;2023-04-24T05:05:48;99901.87;;;14.34;74.25
77086;BME280;66014;53.134;18.006;2023-04-24T05:08:15;99904.36;;;14.44;74.17
77086;BME280;66014;53.134;18.006;2023-04-24T05:10:41;99899.30;;;14.52;73.96
77086;BME280;66014;53.134;18.006;2023-04-24T05:13:10;99894.60;;;14.57;73.72
77086;BME280;66014;53.134;18.006;2023-04-24T05:15:37;99890.04;;;14.60;73.50
77086;BME280;66014;53.134;18.006;2023-04-24T05:18:03;99891.05;;;14.63;73.55
77086;BME280;66014;53.134;18.006;2023-04-24T05:20:29;99890.89;;;14.67;73.37
77086;BME280;66014;53.134;18.006;2023-04-24T05:22:55;99889.87;;;14.69;73.30
77086;BME280;66014;53.134;18.006;2023-04-24T05:25:21;99887.64;;;14.69;73.35
77086;BME280;66014;53.134;18.006;2023-04-24T05:27:48;99885.17;;;14.72;73.26
77086;BME280;66014;53.134;18.006;2023-04-24T05:30:14;99884.53;;;14.78;73.27
77086;BME280;66014;53.134;18.006;2023-04-24T05:32:41;99889.40;;;14.85;73.03
77086;BME280;66014;53.134;18.006;2023-04-24T05:35:09;99891.98;;;14.92;72.84
77086;BME280;66014;53.134;18.006;2023-04-24T05:37:35;99900.48;;;15.04;72.61
77086;BME280;66014;53.134;18.006;2023-04-24T05:40:01;99899.80;;;15.40;72.03
77086;BME280;66014;53.134;18.006;2023-04-24T05:42:30;99900.47;;;15.98;70.46
77086;BME280;66014;53.134;18.006;2023-04-24T05:44:56;99895.36;;;16.44;69.68
77086;BME280;66014;53.134;18.006;2023-04-24T05:47:21;99895.41;;;16.63;69.15
77086;BME280;66014;53.134;18.006;2023-04-24T05:49:48;99898.36;;;16.48;68.95
77086;BME280;66014;53.134;18.006;2023-04-24T05:52:14;99895.33;;;16.28;69.32
77086;BME280;66014;53.134;18.006;2023-04-24T05:54:39;99893.02;;;16.10;69.64
77086;BME280;66014;53.134;18.006;2023-04-24T05:57:05;99889.08;;;16.01;69.56
77086;BME280;66014;53.134;18.006;2023-04-24T05:59:38;99887.94;;;15.95;69.49
77086;BME280;66014;53.134;18.006;2023-04-24T06:02:04;99891.52;;;15.84;69.60
77086;BME280;66014;53.134;18.006;2023-04-24T06:04:30;99893.98;;;15.75;69.76
77086;BME280;66014;53.134;18.006;2023-04-24T06:06:56;99889.33;;;15.68;70.02
77086;BME280;66014;53.134;18.006;2023-04-24T06:09:22;99893.14;;;15.67;70.05
77086;BME280;66014;53.134;18.006;2023-04-24T06:11:49;99892.93;;;15.76;69.91
77086;BME280;66014;53.134;18.006;2023-04-24T06:14:18;99892.55;;;15.77;69.96
77086;BME280;66014;53.134;18.006;2023-04-24T06:16:44;99886.38;;;15.92;69.74
77086;BME280;66014;53.134;18.006;2023-04-24T06:19:10;99883.11;;;16.03;69.41
77086;BME280;66014;53.134;18.006;2023-04-24T06:21:36;99880.44;;;16.14;69.27
77086;BME280;66014;53.134;18.006;2023-04-24T06:24:03;99876.90;;;16.36;68.71
77086;BME280;66014;53.134;18.006;2023-04-24T06:26:30;99872.34;;;16.61;68.01
77086;BME280;66014;53.134;18.006;2023-04-24T06:28:56;99873.04;;;16.90;67.38
77086;BME280;66014;53.134;18.006;2023-04-24T06:31:24;99869.89;;;17.14;66.80
77086;BME280;66014;53.134;18.006;2023-04-24T06:33:49;99863.91;;;17.29;66.18
77086;BME280;66014;53.134;18.006;2023-04-24T06:36:15;99864.88;;;17.47;65.89
77086;BME280;66014;53.134;18.006;2023-04-24T06:38:42;99865.92;;;17.40;65.65
77086;BME280;66014;53.134;18.006;2023-04-24T06:41:07;99859.27;;;17.27;65.57
77086;BME280;66014;53.134;18.006;2023-04-24T06:43:33;99858.15;;;17.15;65.56
77086;BME280;66014;53.134;18.006;2023-04-24T06:46:00;99860.80;;;17.03;65.22
77086;BME280;66014;53.134;18.006;2023-04-24T06:48:26;99860.25;;;16.92;65.28
77086;BME280;66014;53.134;18.006;2023-04-24T06:50:52;99859.53;;;16.87;65.05
77086;BME280;66014;53.134;18.006;2023-04-24T06:53:18;99860.30;;;16.85;65.16
77086;BME280;66014;53.134;18.006;2023-04-24T06:55:44;99853.94;;;16.87;64.98
77086;BME280;66014;53.134;18.006;2023-04-24T06:58:14;99853.59;;;16.90;64.92
77086;BME280;66014;53.134;18.006;2023-04-24T07:00:40;99857.45;;;16.97;64.48
77086;BME280;66014;53.134;18.006;2023-04-24T07:03:06;99854.97;;;17.05;64.38
77086;BME280;66014;53.134;18.006;2023-04-24T07:05:32;99851.34;;;17.14;63.22
77086;BME280;66014;53.134;18.006;2023-04-24T07:08:01;99854.96;;;17.20;61.67
77086;BME280;66014;53.134;18.006;2023-04-24T07:10:27;99851.48;;;17.29;61.63
77086;BME280;66014;53.134;18.006;2023-04-24T07:12:54;99852.08;;;17.49;60.69
77086;BME280;66014;53.134;18.006;2023-04-24T07:15:23;99848.75;;;17.60;60.93
77086;BME280;66014;53.134;18.006;2023-04-24T07:17:49;99844.90;;;17.58;60.10
77086;BME280;66014;53.134;18.006;2023-04-24T07:20:15;99846.60;;;17.57;60.21
77086;BME280;66014;53.134;18.006;2023-04-24T07:22:41;99846.48;;;17.53;59.76
77086;BME280;66014;53.134;18.006;2023-04-24T07:25:07;99843.85;;;17.50;59.86
77086;BME280;66014;53.134;18.006;2023-04-24T07:27:34;99845.41;;;17.51;58.71
77086;BME280;66014;53.134;18.006;2023-04-24T07:30:03;99845.42;;;17.52;58.19
77086;BME280;66014;53.134;18.006;2023-04-24T07:32:29;99844.36;;;17.49;58.30
77086;BME280;66014;53.134;18.006;2023-04-24T07:34:55;99847.27;;;17.46;57.86
77086;BME280;66014;53.134;18.006;2023-04-24T07:37:22;99842.98;;;17.41;57.74
77086;BME280;66014;53.134;18.006;2023-04-24T07:39:48;99844.01;;;17.42;58.12
77086;BME280;66014;53.134;18.006;2023-04-24T07:42:14;99843.75;;;17.51;58.02
77086;BME280;66014;53.134;18.006;2023-04-24T07:44:40;99839.27;;;17.65;57.84
77086;BME280;66014;53.134;18.006;2023-04-24T07:47:06;99835.01;;;17.79;57.03
77086;BME280;66014;53.134;18.006;2023-04-24T07:49:32;99835.63;;;17.90;57.00
77086;BME280;66014;53.134;18.006;2023-04-24T07:51:59;99837.50;;;17.96;56.89
77086;BME280;66014;53.134;18.006;2023-04-24T07:54:27;99837.61;;;17.97;55.67
77086;BME280;66014;53.134;18.006;2023-04-24T07:56:54;99840.98;;;17.98;55.70
77086;BME280;66014;53.134;18.006;2023-04-24T07:59:20;99843.89;;;18.01;55.52
77086;BME280;66014;53.134;18.006;2023-04-24T08:01:45;99839.95;;;18.04;55.43
77086;BME280;66014;53.134;18.006;2023-04-24T08:04:11;99838.13;;;18.08;55.59
77086;BME280;66014;53.134;18.006;2023-04-24T08:06:37;99840.16;;;18.11;54.90
77086;BME280;66014;53.134;18.006;2023-04-24T08:09:05;99840.92;;;18.14;55.07
77086;BME280;66014;53.134;18.006;2023-04-24T08:11:31;99842.67;;;18.23;54.94
77086;BME280;66014;53.134;18.006;2023-04-24T08:13:57;99836.23;;;18.37;54.47
77086;BME280;66014;53.134;18.006;2023-04-24T08:16:24;99840.11;;;18.55;54.28
77086;BME280;66014;53.134;18.006;2023-04-24T08:18:51;99841.92;;;18.80;54.03
77086;BME280;66014;53.134;18.006;2023-04-24T08:21:17;99840.23;;;19.20;52.83
77086;BME280;66014;53.134;18.006;2023-04-24T08:23:45;99843.46;;;19.51;51.33
77086;BME280;66014;53.134;18.006;2023-04-24T08:26:12;99845.86;;;19.69;50.77
77086;BME280;66014;53.134;18.006;2023-04-24T08:28:38;99835.30;;;19.78;50.07
77086;BME280;66014;53.134;18.006;2023-04-24T08:31:05;99832.83;;;19.84;49.76
77086;BME280;66014;53.134;18.006;2023-04-24T08:33:35;99831.55;;;19.88;49.75
77086;BME280;66014;53.134;18.006;2023-04-24T08:36:34;99836.46;;;19.81;49.98
77086;BME280;66014;53.134;18.006;2023-04-24T08:39:19;99829.87;;;19.64;49.62
77086;BME280;66014;53.134;18.006;2023-04-24T08:44:58;99827.86;;;19.32;49.64
77086;BME280;66014;53.134;18.006;2023-04-24T08:47:25;99820.47;;;19.23;49.58
77086;BME280;66014;53.134;18.006;2023-04-24T08:49:54;99820.23;;;19.19;49.88
77086;BME280;66014;53.134;18.006;2023-04-24T08:52:23;99826.32;;;19.17;48.80
77086;BME280;66014;53.134;18.006;2023-04-24T08:54:49;99832.51;;;19.11;49.11
77086;BME280;66014;53.134;18.006;2023-04-24T08:57:16;99836.98;;;19.06;48.15
77086;BME280;66014;53.134;18.006;2023-04-24T08:59:43;99825.02;;;18.98;48.59
77086;BME280;66014;53.134;18.006;2023-04-24T09:02:11;99828.05;;;18.96;49.34
77086;BME280;66014;53.134;18.006;2023-04-24T09:04:37;99828.11;;;18.96;49.00
77086;BME280;66014;53.134;18.006;2023-04-24T09:07:06;99832.42;;;18.92;49.59
77086;BME280;66014;53.134;18.006;2023-04-24T09:09:36;99832.98;;;18.88;49.77
77086;BME280;66014;53.134;18.006;2023-04-24T09:12:04;99829.51;;;18.83;49.76
77086;BME280;66014;53.134;18.006;2023-04-24T09:14:38;99835.29;;;18.77;50.15
77086;BME280;66014;53.134;18.006;2023-04-24T09:17:08;99838.36;;;18.72;50.22
77086;BME280;66014;53.134;18.006;2023-04-24T09:19:40;99841.86;;;18.67;50.25
77086;BME280;66014;53.134;18.006;2023-04-24T09:22:07;99835.92;;;18.59;50.85
77086;BME280;66014;53.134;18.006;2023-04-24T09:24:35;99838.77;;;18.55;51.17
77086;BME280;66014;53.134;18.006;2023-04-24T09:27:01;99837.99;;;18.53;51.31
77086;BME280;66014;53.134;18.006;2023-04-24T09:29:28;99832.77;;;18.54;51.39
77086;BME280;66014;53.134;18.006;2023-04-24T09:31:54;99830.51;;;18.58;51.38
77086;BME280;66014;53.134;18.006;2023-04-24T09:34:25;99835.30;;;18.60;51.56
77086;BME280;66014;53.134;18.006;2023-04-24T09:36:52;99837.23;;;18.60;51.59
77086;BME280;66014;53.134;18.006;2023-04-24T09:39:21;99827.04;;;18.63;51.72
77086;BME280;66014;53.134;18.006;2023-04-24T09:41:55;99827.55;;;18.74;51.64
77086;BME280;66014;53.134;18.006;2023-04-24T09:44:24;99823.67;;;18.90;51.09
77086;BME280;66014;53.134;18.006;2023-04-24T09:46:53;99819.88;;;19.10;50.99
77086;BME280;66014;53.134;18.006;2023-04-24T09:49:23;99817.48;;;19.57;50.06
77086;BME280;66014;53.134;18.006;2023-04-24T09:51:50;99818.34;;;20.21;49.09
77086;BME280;66014;53.134;18.006;2023-04-24T09:54:17;99815.56;;;20.57;48.43
77086;BME280;66014;53.134;18.006;2023-04-24T09:56:45;99810.50;;;20.80;48.47
77086;BME280;66014;53.134;18.006;2023-04-24T09:59:16;99811.64;;;21.04;47.66
77086;BME280;66014;53.134;18.006;2023-04-24T10:01:42;99810.30;;;21.24;47.13
77086;BME280;66014;53.134;18.006;2023-04-24T10:06:47;99808.15;;;21.30;46.91
77086;BME280;66014;53.134;18.006;2023-04-24T10:09:15;99804.14;;;21.12;46.68
77086;BME280;66014;53.134;18.006;2023-04-24T10:11:43;99802.84;;;20.93;46.50
77086;BME280;66014;53.134;18.006;2023-04-24T10:14:17;99798.67;;;20.76;46.58
77086;BME280;66014;53.134;18.006;2023-04-24T10:16:43;99789.01;;;20.70;46.89
77086;BME280;66014;53.134;18.006;2023-04-24T10:19:10;99783.17;;;20.73;46.78
77086;BME280;66014;53.134;18.006;2023-04-24T10:21:40;99773.11;;;20.72;46.84
77086;BME280;66014;53.134;18.006;2023-04-24T10:24:09;99790.77;;;20.79;46.79
77086;BME280;66014;53.134;18.006;2023-04-24T10:26:35;99795.52;;;21.03;46.12
77086;BME280;66014;53.134;18.006;2023-04-24T10:29:02;99796.82;;;21.21;45.98
77086;BME280;66014;53.134;18.006;2023-04-24T10:31:31;99790.75;;;21.42;45.78
77086;BME280;66014;53.134;18.006;2023-04-24T10:33:59;99784.20;;;21.70;45.40
77086;BME280;66014;53.134;18.006;2023-04-24T10:36:27;99787.79;;;21.95;44.69
77086;BME280;66014;53.134;18.006;2023-04-24T10:38:56;99789.77;;;22.29;43.90
77086;BME280;66014;53.134;18.006;2023-04-24T10:41:25;99790.33;;;22.60;43.02
77086;BME280;66014;53.134;18.006;2023-04-24T10:44:14;99796.54;;;23.10;41.99
77086;BME280;66014;53.134;18.006;2023-04-24T10:46:45;99792.89;;;24.15;40.27
77086;BME280;66014;53.134;18.006;2023-04-24T10:49:11;99789.30;;;25.08;40.11
77086;BME280;66014;53.134;18.006;2023-04-24T10:51:53;99788.52;;;26.17;37.85
77086;BME280;66014;53.134;18.006;2023-04-24T10:54:34;99785.65;;;26.99;36.40
77086;BME280;66014;53.134;18.006;2023-04-24T10:59:47;99784.95;;;27.87;33.85
77086;BME280;66014;53.134;18.006;2023-04-24T11:02:16;99789.09;;;27.50;33.72
77086;BME280;66014;53.134;18.006;2023-04-24T11:04:43;99785.52;;;27.84;33.43
77086;BME280;66014;53.134;18.006;2023-04-24T11:07:11;99784.77;;;28.03;33.25
77086;BME280;66014;53.134;18.006;2023-04-24T11:09:37;99782.85;;;27.38;34.25
77086;BME280;66014;53.134;18.006;2023-04-24T11:12:08;99784.79;;;26.55;34.63
77086;BME280;66014;53.134;18.006;2023-04-24T11:14:59;99780.19;;;25.88;35.79
77086;BME280;66014;53.134;18.006;2023-04-24T11:17:36;99787.67;;;25.51;36.22
77086;BME280;66014;53.134;18.006;2023-04-24T11:20:08;99785.39;;;25.62;36.45
77086;BME280;66014;53.134;18.006;2023-04-24T11:22:35;99787.85;;;25.54;37.09
77086;BME280;66014;53.134;18.006;2023-04-24T11:25:03;99786.60;;;26.06;36.77
77086;BME280;66014;53.134;18.006;2023-04-24T11:27:31;99796.75;;;25.88;36.58
77086;BME280;66014;53.134;18.006;2023-04-24T11:30:03;99805.58;;;25.85;36.39
77086;BME280;66014;53.134;18.006;2023-04-24T11:34:59;99796.95;;;25.69;36.91
77086;BME280;66014;53.134;18.006;2023-04-24T11:37:27;99798.16;;;25.99;36.50
77086;BME280;66014;53.134;18.006;2023-04-24T11:39:55;99799.23;;;26.44;36.15
77086;BME280;66014;53.134;18.006;2023-04-24T11:42:22;99796.81;;;26.80;35.79
77086;BME280;66014;53.134;18.006;2023-04-24T11:44:52;99795.58;;;27.67;34.66
77086;BME280;66014;53.134;18.006;2023-04-24T11:47:19;99796.80;;;28.31;33.87
77086;BME280;66014;53.134;18.006;2023-04-24T11:49:46;99800.29;;;29.09;32.86
77086;BME280;66014;53.134;18.006;2023-04-24T11:52:15;99800.91;;;29.87;32.04
77086;BME280;66014;53.134;18.006;2023-04-24T11:54:47;99789.79;;;30.55;30.76
77086;BME280;66014;53.134;18.006;2023-04-24T11:57:13;99789.48;;;30.65;29.95
77086;BME280;66014;53.134;18.006;2023-04-24T11:59:39;99788.52;;;30.24;30.01
77086;BME280;66014;53.134;18.006;2023-04-24T12:02:06;99784.36;;;30.76;30.04
77086;BME280;66014;53.134;18.006;2023-04-24T12:04:39;99781.09;;;31.27;29.18
77086;BME280;66014;53.134;18.006;2023-04-24T12:07:06;99785.69;;;31.43;28.73
77086;BME280;66014;53.134;18.006;2023-04-24T12:09:48;99779.62;;;31.62;27.37
77086;BME280;66014;53.134;18.006;2023-04-24T12:12:17;99779.98;;;31.77;27.03
77086;BME280;66014;53.134;18.006;2023-04-24T12:14:47;99780.94;;;31.02;26.38
77086;BME280;66014;53.134;18.006;2023-04-24T12:17:15;99779.73;;;29.44;27.68
77086;BME280;66014;53.134;18.006;2023-04-24T12:19:49;99777.95;;;27.81;29.41
77086;BME280;66014;53.134;18.006;2023-04-24T12:22:16;99775.20;;;26.24;31.71
77086;BME280;66014;53.134;18.006;2023-04-24T12:25:01;99777.41;;;25.18;33.29
77086;BME280;66014;53.134;18.006;2023-04-24T12:27:32;99773.70;;;25.22;33.76
77086;BME280;66014;53.134;18.006;2023-04-24T12:30:00;99770.98;;;26.00;33.13
77086;BME280;66014;53.134;18.006;2023-04-24T12:32:26;99772.30;;;25.47;33.99
77086;BME280;66014;53.134;18.006;2023-04-24T12:34:53;99766.98;;;24.86;34.61
77086;BME280;66014;53.134;18.006;2023-04-24T12:37:19;99765.71;;;24.73;35.19
77086;BME280;66014;53.134;18.006;2023-04-24T12:40:06;99768.36;;;24.79;35.02
77086;BME280;66014;53.134;18.006;2023-04-24T12:42:33;99753.23;;;24.00;36.77
77086;BME280;66014;53.134;18.006;2023-04-24T12:45:01;99753.94;;;23.52;38.05
77086;BME280;66014;53.134;18.006;2023-04-24T12:47:29;99759.59;;;23.16;39.01
77086;BME280;66014;53.134;18.006;2023-04-24T12:49:56;99753.16;;;22.86;39.77
77086;BME280;66014;53.134;18.006;2023-04-24T12:52:23;99760.06;;;22.70;39.71
77086;BME280;66014;53.134;18.006;2023-04-24T12:54:57;99756.95;;;22.86;39.44
77086;BME280;66014;53.134;18.006;2023-04-24T12:57:24;99754.20;;;23.17;39.43
77086;BME280;66014;53.134;18.006;2023-04-24T12:59:53;99753.34;;;23.15;38.88
77086;BME280;66014;53.134;18.006;2023-04-24T13:02:22;99751.58;;;22.99;38.84
77086;BME280;66014;53.134;18.006;2023-04-24T13:04:49;99752.70;;;22.77;40.73